Time;durP1;ratioP1;P1;durP2;ratioP2;P2;SDS_P1;SDS_P2;PMS_P1;PMS_P2;Temp;Humidity;BMP_temperature;BMP_pressure;BME280_temperature;BME280_humidity;BME280_pressure;Samples;Min_cycle;Max_cycle;Signal;HPM_P1;HPM_P2
2021/03/27 00:00:15;;;;;;;;;;;6.80;78.80;;;;;;5012148;28;20000;-79
2021/03/27 00:02:45;;;;;;;;;;;6.70;78.80;;;;;;5010946;28;19928;-79
2021/03/27 00:05:22;;;;;;;;;;;6.70;78.90;;;;;;5010241;28;19918;-79
2021/03/27 00:08:02;;;;;;;;;;;6.70;78.90;;;;;;5011528;28;19948;-79
2021/03/27 00:10:32;;;;;;;;;;;6.70;79.00;;;;;;4993841;28;19905;-79
2021/03/27 00:13:08;;;;;;;;;;;6.70;79.00;;;;;;4977901;28;19911;-78
2021/03/27 00:15:35;;;;;;;;;;;6.60;79.10;;;;;;5011392;28;19935;-79
2021/03/27 00:18:10;;;;;;;;;;;6.60;79.10;;;;;;5009726;28;20000;-78
2021/03/27 00:20:41;;;;;;;;;;;6.60;79.20;;;;;;5010335;28;19992;-79
2021/03/27 00:23:11;;;;;;;;;;;6.50;79.10;;;;;;5011450;28;19906;-79
2021/03/27 00:25:38;;;;;;;;;;;6.50;79.20;;;;;;5011358;28;20008;-79
2021/03/27 00:28:16;;;;;;;;;;;6.50;79.30;;;;;;5011580;28;21225;-79
2021/03/27 00:30:51;;;;;;;;;;;6.50;79.30;;;;;;4993594;28;20242;-79
2021/03/27 00:33:19;;;;;;;;;;;6.40;79.40;;;;;;5010439;28;19906;-79
2021/03/27 00:35:50;;;;;;;;;;;6.50;79.40;;;;;;4978130;28;19906;-79
2021/03/27 00:38:18;;;;;;;;;;;6.50;79.40;;;;;;5009849;28;19912;-79
2021/03/27 00:40:45;;;;;;;;;;;6.40;79.30;;;;;;5011047;28;20325;-79
2021/03/27 00:43:15;;;;;;;;;;;6.40;79.20;;;;;;4991659;28;19955;-79
2021/03/27 00:45:42;;;;;;;;;;;6.50;79.40;;;;;;4991495;28;19918;-79
2021/03/27 00:48:12;;;;;;;;;;;6.40;79.30;;;;;;5011198;28;20364;-80
2021/03/27 00:50:44;;;;;;;;;;;6.40;79.30;;;;;;4992509;28;19928;-79
2021/03/27 00:53:14;;;;;;;;;;;6.50;79.30;;;;;;4993426;28;20000;-79
2021/03/27 00:55:48;;;;;;;;;;;6.40;79.30;;;;;;5011148;28;19905;-79
2021/03/27 00:58:16;;;;;;;;;;;6.30;79.20;;;;;;5009285;28;20063;-79
2021/03/27 01:00:44;;;;;;;;;;;6.40;79.30;;;;;;4993685;28;19912;-79
2021/03/27 01:03:14;;;;;;;;;;;6.30;79.90;;;;;;4993229;28;19913;-79
2021/03/27 01:05:40;;;;;;;;;;;6.40;79.30;;;;;;5010826;28;20438;-79
2021/03/27 01:08:08;;;;;;;;;;;6.40;79.30;;;;;;5010929;28;20253;-78
2021/03/27 01:10:36;;;;;;;;;;;6.30;79.30;;;;;;4991443;28;20470;-78
2021/03/27 01:13:04;;;;;;;;;;;6.40;79.30;;;;;;5010974;28;19909;-78
2021/03/27 01:15:32;;;;;;;;;;;6.30;79.20;;;;;;4991292;28;19913;-78
2021/03/27 01:18:01;;;;;;;;;;;6.40;79.20;;;;;;5014192;28;19911;-79
2021/03/27 01:20:30;;;;;;;;;;;6.50;79.30;;;;;;5014203;28;19956;-78
2021/03/27 01:22:57;;;;;;;;;;;6.40;79.30;;;;;;5014290;28;19921;-80
2021/03/27 01:25:24;;;;;;;;;;;6.40;79.20;;;;;;4995849;28;19917;-79
2021/03/27 01:27:55;;;;;;;;;;;6.40;79.20;;;;;;4996773;28;19959;-79
2021/03/27 01:30:30;;;;;;;;;;;6.40;79.20;;;;;;5012390;28;19912;-79
2021/03/27 01:32:58;;;;;;;;;;;6.40;79.20;;;;;;5012458;28;19909;-79
2021/03/27 01:35:31;;;;;;;;;;;6.40;79.20;;;;;;5014563;28;19905;-79
2021/03/27 01:38:02;;;;;;;;;;;6.40;79.10;;;;;;4995132;28;19913;-79
2021/03/27 01:40:34;;;;;;;;;;;6.50;79.20;;;;;;5013702;28;19905;-81
2021/03/27 01:43:19;;;;;;;;;;;6.40;79.10;;;;;;5014076;28;19935;-80
2021/03/27 01:45:55;;;;;;;;;;;6.40;79.10;;;;;;5013877;28;19921;-80
2021/03/27 01:48:27;;;;;;;;;;;6.40;79.20;;;;;;5012791;28;20039;-79
2021/03/27 01:50:55;;;;;;;;;;;6.50;79.30;;;;;;5012913;28;20267;-79
2021/03/27 01:53:30;;;;;;;;;;;6.40;79.20;;;;;;4996067;28;20402;-80
2021/03/27 01:56:02;;;;;;;;;;;6.40;79.30;;;;;;5013103;28;19912;-79
2021/03/27 01:58:31;;;;;;;;;;;6.50;79.30;;;;;;5013989;28;19968;-80
2021/03/27 02:01:05;;;;;;;;;;;6.40;79.50;;;;;;5013768;28;19911;-80
2021/03/27 02:03:39;;;;;;;;;;;6.50;79.60;;;;;;5012329;28;20311;-80
2021/03/27 02:06:09;;;;;;;;;;;6.50;79.60;;;;;;5011904;28;19932;-81
2021/03/27 02:08:50;;;;;;;;;;;6.40;79.70;;;;;;5013694;28;20000;-78
2021/03/27 02:11:30;;;;;;;;;;;6.40;79.80;;;;;;5012402;28;20368;-80
2021/03/27 02:14:01;;;;;;;;;;;6.50;79.90;;;;;;5013563;28;19956;-79
2021/03/27 02:16:32;;;;;;;;;;;6.50;80.00;;;;;;5012298;28;19906;-79
2021/03/27 02:19:04;;;;;;;;;;;6.50;80.00;;;;;;5011919;28;20004;-82
2021/03/27 02:21:40;;;;;;;;;;;6.50;80.00;;;;;;4994466;28;19906;-81
2021/03/27 02:24:26;;;;;;;;;;;6.50;80.20;;;;;;4995423;28;19917;-81
2021/03/27 02:27:11;;;;;;;;;;;6.50;80.20;;;;;;5011212;28;20419;-79
2021/03/27 02:29:47;;;;;;;;;;;6.50;80.40;;;;;;5012735;28;19921;-81
2021/03/27 02:32:15;;;;;;;;;;;6.50;80.50;;;;;;5012340;28;20382;-79
2021/03/27 02:34:44;;;;;;;;;;;6.60;80.60;;;;;;5013312;28;19913;-80
2021/03/27 02:37:21;;;;;;;;;;;6.50;80.60;;;;;;5011870;28;20271;-80
2021/03/27 02:39:53;;;;;;;;;;;6.50;80.70;;;;;;5012077;28;19916;-79
2021/03/27 02:42:32;;;;;;;;;;;6.60;80.80;;;;;;5013181;28;19913;-81
2021/03/27 02:45:03;;;;;;;;;;;6.50;80.80;;;;;;5013197;28;20030;-79
2021/03/27 02:47:42;;;;;;;;;;;6.50;80.80;;;;;;5012281;28;20052;-79
2021/03/27 02:50:21;;;;;;;;;;;6.40;80.70;;;;;;5012344;28;19910;-82
2021/03/27 02:53:02;;;;;;;;;;;6.40;80.80;;;;;;5012374;28;19912;-79
2021/03/27 02:55:35;;;;;;;;;;;6.40;81.10;;;;;;5013070;28;19912;-81
2021/03/27 02:58:10;;;;;;;;;;;6.30;81.20;;;;;;5013029;28;19905;-81
2021/03/27 03:00:40;;;;;;;;;;;6.40;81.30;;;;;;4993717;28;19905;-79
2021/03/27 03:03:26;;;;;;;;;;;6.20;81.30;;;;;;4994677;28;19907;-80
2021/03/27 03:05:55;;;;;;;;;;;6.20;81.40;;;;;;5011994;28;19917;-79
2021/03/27 03:08:33;;;;;;;;;;;6.00;81.40;;;;;;5012788;28;20295;-79
2021/03/27 03:11:07;;;;;;;;;;;6.10;81.50;;;;;;5011288;28;19913;-82
2021/03/27 03:13:37;;;;;;;;;;;6.10;81.70;;;;;;5011669;28;19905;-80
2021/03/27 03:16:07;;;;;;;;;;;6.00;81.70;;;;;;5012391;28;20008;-81
2021/03/27 03:18:50;;;;;;;;;;;5.90;81.70;;;;;;5013007;28;20407;-79
2021/03/27 03:21:20;;;;;;;;;;;6.00;81.80;;;;;;4993948;28;19906;-79
2021/03/27 03:24:05;;;;;;;;;;;5.90;81.80;;;;;;5012546;28;19912;-79
2021/03/27 03:26:38;;;;;;;;;;;5.90;81.90;;;;;;4996510;28;19987;-81
2021/03/27 03:29:12;;;;;;;;;;;6.00;81.90;;;;;;5010693;28;19909;-80
2021/03/27 03:31:43;;;;;;;;;;;5.90;81.80;;;;;;5010894;28;20276;-79
2021/03/27 03:34:19;;;;;;;;;;;6.00;81.70;;;;;;4994792;28;20011;-79
2021/03/27 03:36:50;;;;;;;;;;;5.90;81.60;;;;;;5010590;28;19944;-80
2021/03/27 03:39:29;;;;;;;;;;;6.00;81.40;;;;;;5010582;28;19905;-79
2021/03/27 03:42:02;;;;;;;;;;;6.10;81.30;;;;;;5011827;28;19933;-80
2021/03/27 03:44:47;;;;;;;;;;;6.10;81.30;;;;;;5012296;28;19917;-79
2021/03/27 03:47:17;;;;;;;;;;;6.10;81.30;;;;;;4997850;28;19905;-79
2021/03/27 03:49:47;;;;;;;;;;;6.10;81.20;;;;;;5012291;28;20016;-81
2021/03/27 03:52:20;;;;;;;;;;;6.20;81.20;;;;;;4993694;28;19905;-79
2021/03/27 03:54:54;;;;;;;;;;;6.10;81.20;;;;;;5010102;28;19913;-79
2021/03/27 03:57:40;;;;;;;;;;;6.10;81.20;;;;;;5010878;28;19906;-79
2021/03/27 04:00:10;;;;;;;;;;;6.10;81.20;;;;;;4997571;28;19931;-79
2021/03/27 04:02:40;;;;;;;;;;;6.20;81.20;;;;;;4993356;28;20000;-79
2021/03/27 04:05:13;;;;;;;;;;;6.20;81.30;;;;;;4992318;28;20314;-80
2021/03/27 04:07:42;;;;;;;;;;;6.10;81.20;;;;;;5010388;28;19944;-79
2021/03/27 04:10:11;;;;;;;;;;;6.20;81.30;;;;;;4993490;28;19913;-79
2021/03/27 04:12:39;;;;;;;;;;;6.20;81.30;;;;;;4977029;28;20045;-79
2021/03/27 04:15:12;;;;;;;;;;;6.20;81.30;;;;;;4992701;28;20025;-79
2021/03/27 04:17:47;;;;;;;;;;;6.10;81.20;;;;;;5011811;28;19912;-79
2021/03/27 04:20:16;;;;;;;;;;;6.20;81.30;;;;;;5010440;28;20256;-80
2021/03/27 04:22:44;;;;;;;;;;;6.20;81.30;;;;;;5011592;28;19909;-79
2021/03/27 04:25:20;;;;;;;;;;;6.30;81.30;;;;;;5009749;28;19927;-78
2021/03/27 04:27:51;;;;;;;;;;;6.30;81.30;;;;;;5010699;28;19906;-79
2021/03/27 04:30:31;;;;;;;;;;;6.20;81.30;;;;;;5011492;28;19912;-79
2021/03/27 04:33:03;;;;;;;;;;;6.20;81.50;;;;;;4993176;28;19909;-80
2021/03/27 04:35:41;;;;;;;;;;;6.10;81.60;;;;;;4992953;28;20272;-80
2021/03/27 04:38:18;;;;;;;;;;;6.10;81.60;;;;;;5010026;28;19944;-80
2021/03/27 04:40:52;;;;;;;;;;;6.10;81.70;;;;;;5010798;28;19914;-81
2021/03/27 04:43:26;;;;;;;;;;;6.10;81.70;;;;;;5011309;28;20249;-79
2021/03/27 04:45:56;;;;;;;;;;;6.10;81.70;;;;;;5009886;28;19917;-79
2021/03/27 04:48:34;;;;;;;;;;;6.10;81.70;;;;;;4992327;28;19959;-79
2021/03/27 04:51:19;;;;;;;;;;;6.10;81.60;;;;;;5010067;28;19905;-79
2021/03/27 04:53:56;;;;;;;;;;;6.20;81.70;;;;;;4995527;28;19949;-80
2021/03/27 04:56:32;;;;;;;;;;;6.10;81.60;;;;;;5010826;28;19932;-80
2021/03/27 04:59:13;;;;;;;;;;;6.20;82.20;;;;;;5010275;28;19944;-80
2021/03/27 05:01:53;;;;;;;;;;;6.20;81.60;;;;;;4993273;28;19956;-79
2021/03/27 05:04:24;;;;;;;;;;;6.20;81.60;;;;;;4992156;28;20352;-79
2021/03/27 05:06:54;;;;;;;;;;;6.20;81.60;;;;;;5011213;28;19960;-79
2021/03/27 05:09:33;;;;;;;;;;;6.20;81.60;;;;;;5011302;28;19905;-78
2021/03/27 05:12:01;;;;;;;;;;;6.30;81.60;;;;;;4992511;28;20004;-82
2021/03/27 05:14:46;;;;;;;;;;;6.30;81.50;;;;;;5011234;28;19992;-79
2021/03/27 05:17:15;;;;;;;;;;;6.30;81.50;;;;;;4975210;28;19913;-81
2021/03/27 05:19:44;;;;;;;;;;;6.30;81.60;;;;;;4993542;28;19905;-81
2021/03/27 05:22:17;;;;;;;;;;;6.40;82.20;;;;;;5009366;28;19906;-79
2021/03/27 05:24:54;;;;;;;;;;;6.30;81.50;;;;;;5009725;28;20411;-81
2021/03/27 05:27:30;;;;;;;;;;;6.30;81.60;;;;;;5009768;28;19905;-81
2021/03/27 05:30:14;;;;;;;;;;;6.20;81.80;;;;;;4991690;28;20339;-78
2021/03/27 05:33:00;;;;;;;;;;;6.10;82.10;;;;;;4992675;28;19920;-79
2021/03/27 05:35:43;;;;;;;;;;;5.90;82.40;;;;;;4979774;28;19913;-79
2021/03/27 05:38:12;;;;;;;;;;;5.90;82.70;;;;;;5008821;28;19905;-79
2021/03/27 05:40:58;;;;;;;;;;;5.70;82.80;;;;;;5010614;28;19991;-80
2021/03/27 05:43:38;;;;;;;;;;;5.80;83.10;;;;;;5009731;28;20382;-80
2021/03/27 05:46:18;;;;;;;;;;;5.70;83.10;;;;;;5010389;28;20011;-79
2021/03/27 05:48:58;;;;;;;;;;;5.70;83.10;;;;;;5010261;28;19909;-79
2021/03/27 05:51:44;;;;;;;;;;;5.70;83.20;;;;;;4992499;28;19963;-79
2021/03/27 05:54:29;;;;;;;;;;;5.60;83.20;;;;;;4995231;28;20261;-80
2021/03/27 05:57:09;;;;;;;;;;;5.70;83.20;;;;;;4996090;28;19906;-80
2021/03/27 05:59:49;;;;;;;;;;;5.70;83.20;;;;;;5009679;28;20394;-81
2021/03/27 06:02:34;;;;;;;;;;;5.70;83.00;;;;;;4993694;28;19905;-80
2021/03/27 06:05:19;;;;;;;;;;;5.80;82.90;;;;;;5012114;28;20264;-80
2021/03/27 06:08:02;;;;;;;;;;;5.80;82.70;;;;;;5013267;28;19912;-81
2021/03/27 06:10:37;;;;;;;;;;;5.90;82.70;;;;;;4995746;28;19936;-81
2021/03/27 06:13:22;;;;;;;;;;;5.90;82.60;;;;;;4993857;28;19959;-80
2021/03/27 06:16:08;;;;;;;;;;;6.10;83.20;;;;;;4995029;28;20241;-81
2021/03/27 06:18:53;;;;;;;;;;;6.00;82.50;;;;;;4998084;28;20311;-81
2021/03/27 06:21:28;;;;;;;;;;;5.90;82.50;;;;;;5011418;28;19960;-81
2021/03/27 06:24:10;;;;;;;;;;;5.90;82.70;;;;;;5012207;28;19920;-80
2021/03/27 06:26:50;;;;;;;;;;;5.60;82.70;;;;;;5012326;28;19924;-82
2021/03/27 06:29:36;;;;;;;;;;;5.50;83.60;;;;;;5013071;28;19906;-81
2021/03/27 06:32:21;;;;;;;;;;;5.40;83.20;;;;;;5011465;28;19996;-81
2021/03/27 06:35:01;;;;;;;;;;;5.20;83.40;;;;;;5013229;28;19905;-82
2021/03/27 06:37:41;;;;;;;;;;;5.20;83.60;;;;;;4994972;28;19909;-81
2021/03/27 06:40:21;;;;;;;;;;;5.10;83.60;;;;;;5011605;28;19956;-82
2021/03/27 06:43:00;;;;;;;;;;;5.10;83.70;;;;;;5012892;28;19921;-82
2021/03/27 06:45:33;;;;;;;;;;;5.00;83.70;;;;;;4995012;28;19925;-80
2021/03/27 06:48:12;;;;;;;;;;;5.00;83.80;;;;;;5013234;28;19996;-79
2021/03/27 06:50:52;;;;;;;;;;;5.00;83.80;;;;;;5012258;28;19928;-80
2021/03/27 06:53:23;;;;;;;;;;;4.90;83.80;;;;;;5012941;28;19913;-80
2021/03/27 06:56:02;;;;;;;;;;;4.90;83.80;;;;;;4991814;28;19912;-80
2021/03/27 06:58:38;;;;;;;;;;;5.00;83.70;;;;;;5012840;28;20387;-80
2021/03/27 07:01:22;;;;;;;;;;;4.90;83.60;;;;;;4993899;28;19914;-80
2021/03/27 07:04:04;;;;;;;;;;;5.00;83.60;;;;;;5011251;28;19921;-82
2021/03/27 07:06:41;;;;;;;;;;;5.00;83.60;;;;;;5012361;28;20311;-81
2021/03/27 07:09:27;;;;;;;;;;;4.90;83.50;;;;;;5011662;28;19906;-80
2021/03/27 07:12:03;;;;;;;;;;;4.90;83.40;;;;;;5011573;28;19910;-80
2021/03/27 07:14:43;;;;;;;;;;;5.00;83.50;;;;;;5011546;28;20338;-80
2021/03/27 07:17:20;;;;;;;;;;;5.00;83.40;;;;;;5011469;28;19909;-80
2021/03/27 07:20:05;;;;;;;;;;;5.10;83.40;;;;;;5012623;28;19909;-79
2021/03/27 07:22:42;;;;;;;;;;;5.20;83.20;;;;;;4998156;28;19913;-80
2021/03/27 07:25:24;;;;;;;;;;;5.30;83.00;;;;;;4993325;28;19917;-80
2021/03/27 07:28:04;;;;;;;;;;;5.40;82.90;;;;;;5010704;28;19913;-80
2021/03/27 07:30:44;;;;;;;;;;;5.60;82.70;;;;;;5012088;28;19983;-83
2021/03/27 07:33:24;;;;;;;;;;;5.70;82.40;;;;;;5011109;28;19905;-82
2021/03/27 07:36:10;;;;;;;;;;;5.80;82.10;;;;;;5012471;28;19905;-82
2021/03/27 07:38:44;;;;;;;;;;;6.10;82.00;;;;;;4997423;28;21234;-80
2021/03/27 07:41:20;;;;;;;;;;;6.10;81.60;;;;;;5010033;28;19959;-81
2021/03/27 07:43:58;;;;;;;;;;;6.30;81.40;;;;;;5011947;28;19912;-79
2021/03/27 07:46:38;;;;;;;;;;;6.40;81.20;;;;;;5011757;28;20000;-82
2021/03/27 07:49:23;;;;;;;;;;;6.40;81.10;;;;;;4994312;28;19913;-80
2021/03/27 07:52:09;;;;;;;;;;;6.40;80.90;;;;;;4997468;28;19906;-83
2021/03/27 07:54:50;;;;;;;;;;;6.50;81.00;;;;;;4997547;28;19905;-84
2021/03/27 07:57:29;;;;;;;;;;;6.50;81.10;;;;;;4993797;28;19913;-83
2021/03/27 08:00:06;;;;;;;;;;;6.50;81.10;;;;;;4993969;28;20439;-82
2021/03/27 08:02:42;;;;;;;;;;;6.60;81.20;;;;;;5011091;28;19905;-79
2021/03/27 08:05:19;;;;;;;;;;;6.50;81.10;;;;;;5011407;28;19913;-80
2021/03/27 08:07:59;;;;;;;;;;;6.60;81.20;;;;;;5010975;28;19996;-80
2021/03/27 08:10:34;;;;;;;;;;;6.70;81.20;;;;;;5010253;28;19945;-79
2021/03/27 08:13:20;;;;;;;;;;;6.70;81.10;;;;;;4973731;28;19905;-80
2021/03/27 08:16:00;;;;;;;;;;;6.70;81.10;;;;;;5010537;28;19991;-80
2021/03/27 08:18:40;;;;;;;;;;;6.70;81.10;;;;;;4992452;28;19929;-81
2021/03/27 08:21:20;;;;;;;;;;;6.60;81.10;;;;;;5011171;28;19953;-82
2021/03/27 08:23:56;;;;;;;;;;;6.70;81.20;;;;;;5011642;28;20015;-81
2021/03/27 08:26:40;;;;;;;;;;;6.60;81.30;;;;;;4976681;28;20245;-79
2021/03/27 08:29:28;;;;;;;;;;;6.60;81.30;;;;;;5011581;28;20442;-79
2021/03/27 08:32:11;;;;;;;;;;;6.50;81.40;;;;;;5011414;28;20382;-80
2021/03/27 08:34:51;;;;;;;;;;;6.30;81.40;;;;;;4993596;28;19932;-82
2021/03/27 08:37:33;;;;;;;;;;;6.10;81.70;;;;;;5011325;28;19910;-80
2021/03/27 08:40:17;;;;;;;;;;;5.80;82.20;;;;;;4992437;28;20367;-80
2021/03/27 08:43:11;;;;;;;;;;;5.70;82.60;;;;;;4992649;28;19906;-82
2021/03/27 08:49:02;;;;;;;;;;;5.50;83.10;;;;;;5011370;28;20071;-79
2021/03/27 08:51:34;;;;;;;;;;;5.40;83.20;;;;;;4980410;28;19914;-79
2021/03/27 08:54:08;;;;;;;;;;;5.50;83.30;;;;;;4974772;28;19959;-81
2021/03/27 08:56:53;;;;;;;;;;;5.70;83.10;;;;;;5010963;28;19976;-80
2021/03/27 08:59:38;;;;;;;;;;;5.80;82.80;;;;;;4993535;28;19921;-79
2021/03/27 09:02:18;;;;;;;;;;;6.00;82.10;;;;;;4996792;28;19957;-79
2021/03/27 09:04:49;;;;;;;;;;;6.10;82.10;;;;;;5010616;28;19909;-79
2021/03/27 09:07:19;;;;;;;;;;;6.40;82.10;;;;;;5016758;28;19975;-81
2021/03/27 09:09:51;;;;;;;;;;;6.70;81.10;;;;;;5017868;28;20000;-81
2021/03/27 09:12:24;;;;;;;;;;;6.60;80.30;;;;;;4997369;28;20352;-80
2021/03/27 09:18:30;;;;;;;;;;;6.50;80.40;;;;;;4980052;28;19925;-87
2021/03/27 09:24:24;;;;;;;;;;;6.40;81.50;;;;;;4914169;29;19915;-80
2021/03/27 09:27:04;;;;;;;;;;;6.60;81.20;;;;;;4914790;29;19924;-80
2021/03/27 09:29:35;;;;;;;;;;;6.80;81.10;;;;;;4921482;29;19907;-81
2021/03/27 09:32:11;;;;;;;;;;;6.90;80.50;;;;;;4897202;29;19914;-83
2021/03/27 09:34:53;;;;;;;;;;;7.00;80.10;;;;;;4911179;29;19926;-82
2021/03/27 09:37:39;;;;;;;;;;;7.10;80.80;;;;;;4848033;29;19976;-79
2021/03/27 09:40:16;;;;;;;;;;;7.20;80.10;;;;;;4832371;29;20021;-78
2021/03/27 09:42:58;;;;;;;;;;;7.30;79.90;;;;;;4843032;29;19948;-80
2021/03/27 09:45:30;;;;;;;;;;;7.40;79.70;;;;;;4852085;29;19929;-82
2021/03/27 09:48:16;;;;;;;;;;;7.50;79.50;;;;;;4840748;29;19924;-80
2021/03/27 09:53:55;;;;;;;;;;;7.80;79.00;;;;;;4826528;29;19924;-80
2021/03/27 09:56:25;;;;;;;;;;;8.00;78.70;;;;;;4859992;29;19924;-76
2021/03/27 09:59:10;;;;;;;;;;;7.90;78.20;;;;;;4844003;29;20593;-80
2021/03/27 10:01:40;;;;;;;;;;;7.80;77.50;;;;;;4833705;29;19924;-76
2021/03/27 10:04:30;;;;;;;;;;;7.70;77.60;;;;;;4859517;29;19912;-78
2021/03/27 10:07:03;;;;;;;;;;;7.70;77.10;;;;;;4821974;29;20014;-78
2021/03/27 10:09:39;;;;;;;;;;;7.90;77.20;;;;;;4805099;29;19936;-79
2021/03/27 10:12:09;;;;;;;;;;;8.00;76.50;;;;;;4819413;29;19984;-79
2021/03/27 10:14:37;;;;;;;;;;;8.20;75.70;;;;;;4804843;29;19921;-83
2021/03/27 10:20:14;;;;;;;;;;;8.60;75.40;;;;;;4822147;29;19947;-78
2021/03/27 10:23:05;;;;;;;;;;;8.80;74.30;;;;;;4804402;29;19917;-80
2021/03/27 10:25:40;;;;;;;;;;;8.90;74.00;;;;;;4903419;29;20019;-77
2021/03/27 10:28:24;;;;;;;;;;;9.10;73.40;;;;;;4859334;29;19952;-77
2021/03/27 10:30:55;;;;;;;;;;;9.10;72.10;;;;;;4843865;29;19992;-78
2021/03/27 10:33:25;;;;;;;;;;;9.20;71.20;;;;;;4858706;29;20015;-77
2021/03/27 10:35:54;;;;;;;;;;;9.20;70.20;;;;;;4858838;29;19908;-78
2021/03/27 10:38:32;;;;;;;;;;;9.20;70.00;;;;;;4866610;29;20036;-78
2021/03/27 10:41:03;;;;;;;;;;;9.20;69.10;;;;;;4877518;29;20422;-79
2021/03/27 10:43:48;;;;;;;;;;;9.20;68.70;;;;;;4878793;29;20367;-78
2021/03/27 10:46:18;;;;;;;;;;;9.30;68.10;;;;;;4877551;29;20010;-79
2021/03/27 10:52:12;;;;;;;;;;;9.50;68.60;;;;;;4913761;28;20297;-80
2021/03/27 10:58:08;;;;;;;;;;;9.70;67.20;;;;;;4968328;28;20009;-79
2021/03/27 11:01:09;;;;;;;;;;;9.80;66.70;;;;;;4939040;28;19929;-79
2021/03/27 11:04:02;;;;;;;;;;;9.80;66.20;;;;;;4969396;28;20013;-79
2021/03/27 11:06:43;;;;;;;;;;;9.80;65.60;;;;;;4971815;28;19918;-79
2021/03/27 11:09:21;;;;;;;;;;;10.00;65.60;;;;;;4971554;28;19922;-80
2021/03/27 11:12:06;;;;;;;;;;;10.10;64.90;;;;;;4972081;28;19914;-81
2021/03/27 11:14:42;;;;;;;;;;;10.20;64.40;;;;;;4972720;28;19921;-79
2021/03/27 11:17:22;;;;;;;;;;;10.30;63.40;;;;;;4972886;28;19961;-84
2021/03/27 11:20:05;;;;;;;;;;;10.20;63.30;;;;;;5013923;28;20340;-79
2021/03/27 11:22:43;;;;;;;;;;;10.30;63.00;;;;;;4993599;28;19905;-80
2021/03/27 11:25:23;;;;;;;;;;;10.30;63.20;;;;;;5012896;28;19929;-80
2021/03/27 11:27:53;;;;;;;;;;;10.30;62.80;;;;;;5011748;28;19936;-77
2021/03/27 11:30:23;;;;;;;;;;;10.30;63.10;;;;;;5013406;28;20268;-80
2021/03/27 11:33:04;;;;;;;;;;;10.50;62.80;;;;;;5013063;28;19906;-78
2021/03/27 11:35:34;;;;;;;;;;;10.50;62.90;;;;;;5013001;28;20375;-79
2021/03/27 11:38:15;;;;;;;;;;;10.50;62.00;;;;;;5012465;28;20000;-78
2021/03/27 11:40:46;;;;;;;;;;;10.30;61.50;;;;;;5011639;28;19917;-82
2021/03/27 11:43:34;;;;;;;;;;;10.10;62.00;;;;;;5012417;28;19913;-81
2021/03/27 11:46:04;;;;;;;;;;;9.80;62.40;;;;;;4998320;28;19918;-78
2021/03/27 11:48:36;;;;;;;;;;;9.60;63.10;;;;;;4995229;28;19913;-80
2021/03/27 11:51:22;;;;;;;;;;;9.40;63.60;;;;;;5010796;28;19914;-79
2021/03/27 11:53:53;;;;;;;;;;;9.30;64.10;;;;;;4995514;28;19913;-77
2021/03/27 11:56:36;;;;;;;;;;;9.10;64.40;;;;;;5012091;28;19917;-79
2021/03/27 12:02:17;;;;;;;;;;;8.90;65.00;;;;;;5012662;28;19920;-77
2021/03/27 12:05:04;;;;;;;;;;;8.80;64.50;;;;;;5011560;28;19972;-79
2021/03/27 12:07:35;;;;;;;;;;;8.80;64.20;;;;;;4981420;28;19926;-78
2021/03/27 12:10:18;;;;;;;;;;;8.80;63.70;;;;;;4994505;28;21244;-77
2021/03/27 12:12:49;;;;;;;;;;;8.90;63.80;;;;;;5011046;28;19920;-80
2021/03/27 12:15:18;;;;;;;;;;;8.90;63.80;;;;;;5011865;28;19956;-76
2021/03/27 12:17:50;;;;;;;;;;;9.00;63.60;;;;;;5011876;28;20280;-78
2021/03/27 12:20:29;;;;;;;;;;;9.10;63.60;;;;;;4994156;28;19959;-77
2021/03/27 12:23:14;;;;;;;;;;;9.10;63.60;;;;;;5010711;28;19905;-78
2021/03/27 12:25:59;;;;;;;;;;;9.10;63.60;;;;;;5010818;28;19918;-76
2021/03/27 12:28:45;;;;;;;;;;;8.90;64.20;;;;;;5010610;28;19912;-77
2021/03/27 12:31:16;;;;;;;;;;;8.70;64.40;;;;;;5011545;28;20359;-74
2021/03/27 12:33:51;;;;;;;;;;;8.70;65.10;;;;;;5013921;28;19948;-76
2021/03/27 12:36:19;;;;;;;;;;;8.70;65.50;;;;;;4996819;28;19953;-76
2021/03/27 12:38:56;;;;;;;;;;;8.80;65.10;;;;;;5014400;28;19905;-78
2021/03/27 12:41:25;;;;;;;;;;;8.90;64.60;;;;;;5010764;28;20011;-78
2021/03/27 12:43:52;;;;;;;;;;;8.70;65.00;;;;;;5012739;28;19944;-75
2021/03/27 12:46:32;;;;;;;;;;;8.70;65.60;;;;;;5011889;28;19932;-75
2021/03/27 12:49:07;;;;;;;;;;;9.00;65.90;;;;;;4995687;28;19920;-77
2021/03/27 12:51:39;;;;;;;;;;;9.20;65.70;;;;;;5014571;28;19963;-78
2021/03/27 12:54:22;;;;;;;;;;;9.40;65.20;;;;;;5015200;28;20685;-76
2021/03/27 12:57:02;;;;;;;;;;;9.50;64.60;;;;;;5014310;28;21211;-76
2021/03/27 12:59:34;;;;;;;;;;;9.50;64.30;;;;;;5015038;28;19917;-77
2021/03/27 13:02:19;;;;;;;;;;;9.40;64.30;;;;;;5014713;28;19913;-79
2021/03/27 13:05:03;;;;;;;;;;;9.30;64.60;;;;;;4996443;28;19909;-77
2021/03/27 13:10:44;;;;;;;;;;;8.70;65.70;;;;;;4950547;28;20472;-82
2021/03/27 13:13:16;;;;;;;;;;;8.50;66.70;;;;;;4913993;29;20059;-81
2021/03/27 13:15:59;;;;;;;;;;;8.40;67.40;;;;;;4871614;29;19966;-82
2021/03/27 13:18:28;;;;;;;;;;;8.40;67.80;;;;;;4872181;29;19915;-74
2021/03/27 13:20:57;;;;;;;;;;;8.30;68.00;;;;;;4878534;29;19908;-77
2021/03/27 13:23:25;;;;;;;;;;;8.50;68.20;;;;;;4879257;29;20375;-78
2021/03/27 13:25:55;;;;;;;;;;;8.70;67.80;;;;;;4882185;29;19927;-77
2021/03/27 13:28:26;;;;;;;;;;;8.70;68.30;;;;;;4889425;29;19919;-79
2021/03/27 13:30:54;;;;;;;;;;;8.80;67.90;;;;;;4877590;29;19908;-76
2021/03/27 13:33:22;;;;;;;;;;;9.00;67.70;;;;;;4880050;29;19915;-77
2021/03/27 13:36:08;;;;;;;;;;;9.20;67.30;;;;;;4879512;29;19932;-75
2021/03/27 13:38:45;;;;;;;;;;;9.50;66.70;;;;;;4865650;29;19992;-77
2021/03/27 13:41:19;;;;;;;;;;;9.70;65.80;;;;;;4908677;29;20015;-75
2021/03/27 13:43:49;;;;;;;;;;;9.80;65.30;;;;;;4948461;28;20001;-76
2021/03/27 13:46:20;;;;;;;;;;;9.90;64.60;;;;;;4973747;28;20308;-77
2021/03/27 13:49:01;;;;;;;;;;;9.80;63.70;;;;;;4973787;28;19997;-75
2021/03/27 13:51:38;;;;;;;;;;;9.70;64.00;;;;;;4973572;28;19910;-77
2021/03/27 13:54:15;;;;;;;;;;;9.70;64.40;;;;;;4973575;28;20001;-75
2021/03/27 13:56:45;;;;;;;;;;;9.70;63.90;;;;;;4992748;28;19968;-76
2021/03/27 13:59:31;;;;;;;;;;;9.80;64.00;;;;;;4996706;28;19917;-76
2021/03/27 14:02:08;;;;;;;;;;;9.70;63.90;;;;;;5000086;28;20360;-76
2021/03/27 14:04:37;;;;;;;;;;;9.60;63.90;;;;;;5013446;28;20466;-76
2021/03/27 14:07:05;;;;;;;;;;;9.70;64.20;;;;;;5014218;28;19917;-76
2021/03/27 14:09:34;;;;;;;;;;;9.80;64.10;;;;;;5014264;28;19906;-75
2021/03/27 14:12:03;;;;;;;;;;;10.00;64.00;;;;;;5014239;28;19905;-77
2021/03/27 14:14:38;;;;;;;;;;;10.00;63.10;;;;;;5012505;28;19928;-75
2021/03/27 14:17:11;;;;;;;;;;;10.10;62.90;;;;;;4995506;28;20344;-76
2021/03/27 14:19:56;;;;;;;;;;;10.10;62.70;;;;;;5013043;28;19944;-74
2021/03/27 14:22:40;;;;;;;;;;;10.10;62.40;;;;;;4999085;28;20264;-73
2021/03/27 14:25:20;;;;;;;;;;;10.10;62.60;;;;;;5013843;28;20263;-75
2021/03/27 14:28:00;;;;;;;;;;;10.00;62.40;;;;;;5012356;28;19912;-77
2021/03/27 14:30:40;;;;;;;;;;;9.90;63.00;;;;;;5017216;28;19960;-75
2021/03/27 14:33:18;;;;;;;;;;;10.10;63.80;;;;;;5012594;28;19936;-77
2021/03/27 14:35:51;;;;;;;;;;;10.40;63.30;;;;;;5013859;28;19909;-76
2021/03/27 14:38:22;;;;;;;;;;;10.40;62.80;;;;;;5012406;28;20000;-77
2021/03/27 14:40:57;;;;;;;;;;;10.40;62.20;;;;;;5012413;28;19906;-78
2021/03/27 14:43:28;;;;;;;;;;;10.50;62.00;;;;;;5012275;28;19921;-80
2021/03/27 14:46:09;;;;;;;;;;;10.70;62.10;;;;;;4995897;28;19948;-80
2021/03/27 14:48:41;;;;;;;;;;;10.50;61.10;;;;;;4994000;28;19955;-78
2021/03/27 14:51:11;;;;;;;;;;;10.40;61.80;;;;;;4952338;28;19950;-80
2021/03/27 14:53:45;;;;;;;;;;;10.20;62.70;;;;;;4936074;29;19921;-77
2021/03/27 14:59:32;;;;;;;;;;;9.90;62.90;;;;;;4894192;29;20059;-79
2021/03/27 15:02:13;;;;;;;;;;;9.80;63.70;;;;;;4881504;29;19915;-78
2021/03/27 15:04:49;;;;;;;;;;;10.00;63.50;;;;;;4895897;29;19907;-74
2021/03/27 15:07:17;;;;;;;;;;;10.20;62.80;;;;;;4895811;29;19926;-76
2021/03/27 15:09:53;;;;;;;;;;;10.10;62.00;;;;;;4895660;29;19912;-77
2021/03/27 15:12:33;;;;;;;;;;;10.20;61.70;;;;;;4879954;29;19958;-76
2021/03/27 15:15:07;;;;;;;;;;;10.30;61.80;;;;;;4895752;29;19935;-73
2021/03/27 15:17:44;;;;;;;;;;;10.40;60.80;;;;;;4880268;29;19911;-79
2021/03/27 15:20:14;;;;;;;;;;;10.50;60.50;;;;;;4880034;29;19974;-75
2021/03/27 15:22:42;;;;;;;;;;;10.50;60.80;;;;;;4923160;29;20018;-76
2021/03/27 15:28:12;;;;;;;;;;;10.30;60.10;;;;;;4934268;29;19911;-78
2021/03/27 15:31:10;;;;;;;;;;;10.20;60.80;;;;;;4932421;29;19918;-80
2021/03/27 15:33:47;;;;;;;;;;;10.50;61.80;;;;;;4934491;29;19914;-77
2021/03/27 15:36:25;;;;;;;;;;;11.30;60.30;;;;;;4992145;28;19917;-75
2021/03/27 15:39:05;;;;;;;;;;;11.90;58.50;;;;;;4999862;28;19976;-76
2021/03/27 15:41:35;;;;;;;;;;;12.00;57.00;;;;;;5014955;28;19913;-77
2021/03/27 15:44:04;;;;;;;;;;;11.60;57.30;;;;;;4998777;28;19913;-76
2021/03/27 15:46:33;;;;;;;;;;;11.40;58.20;;;;;;5000089;28;19914;-77
2021/03/27 15:49:10;;;;;;;;;;;11.10;58.50;;;;;;5019420;28;20360;-80
2021/03/27 15:51:40;;;;;;;;;;;11.10;59.20;;;;;;5002090;28;20360;-78
2021/03/27 15:54:16;;;;;;;;;;;10.90;59.60;;;;;;5014559;28;19905;-81